Terminal Aerodrome Forecast
Issued by NWS

Home | Current Version | Previous Version | Graphics & Text | Print | Product List | Glossary On
Versions: 1 2 3 4 5 6 7 8 9 10 11 12 13 14 15 16 17 18 19 20 21 22 23 24 25 26 27 28 29 30 31 32 33 34 35
000
FTUS43 KLOT 252200 AAC
TAFDPA
TAF AMD
KDPA 252207Z 2522/2618 20009KT P6SM VCSH SCT060
     FM252300 18006KT P6SM SCT050
     FM260300 25007KT 5SM BR FEW010 BKN060
      TEMPO 2608/2612 2SM BR
     FM261300 30007KT P6SM BKN060
     FM261700 34008KT P6SM SCT030=

USA.gov is the U.S. government's official web portal to all federal, state and local government web resources and services.